Levittown, New York
Current Conditions -  °F | °C
As of 4:33 AM on Monday 24 Nov 2014 (Local Time) from KFRG Reporting Station
Heavy Rain Heavy Rain  
Wind Chill: 60°   Ceiling: 600
Heat Index: 60°   Visibility: 3mi
Dew Point: 57°   Wind: 23mph
Humidity: 90%   Direction: 160°SSE
Pressure: 29.81"   Gusts: 31mph
Location:  40.73°N, 73.51°W
Report Text: KFRG 240933Z AUTO 16020G27KT 3SM +RA BR BKN006 OVC017 16/14 A2981 RMK AO2 PK WND 16028/0908 P0016 T01560139
Loading
Personal Weather Stations






























Interactive Weather Map New forecast layout! Learn more

10-Day Weather Forecast

Advertisements
Track Severe Weather on mobile